Uvalde Research's Hourly Summary for Saturday, April 15, 2017
Hour Temp
(f)
RH
(%)
Solar Rad.
(MJ/m2)
Rainfall
(in)
Wind
(mph)
4/15/2017 12:00 AM 0 0 0 0 0
4/15/2017 1:00 AM 70 87 0 0 3.78
4/15/2017 2:00 AM 69 90 0 0 4.35
4/15/2017 3:00 AM 69 91 0 0 3.82
4/15/2017 4:00 AM 68 91 0 0 3.84
4/15/2017 5:00 AM 68 91 0 0 2.94
4/15/2017 6:00 AM 68 90 0 0 3.07
4/15/2017 7:00 AM 67 92 0.03 0 2.45
4/15/2017 8:00 AM 68 93 0.2 0 3.36
4/15/2017 9:00 AM 69 90 0.37 0 3.99
4/15/2017 10:00 AM 70 88 0.57 0 3.78
4/15/2017 11:00 AM 72 85 0.89 0 3.71
4/15/2017 12:00 PM 74 80 1.01 0 3.42
4/15/2017 1:00 PM 75 76 1.01 0 3.44
4/15/2017 2:00 PM 78 70 1.81 0 3.51
4/15/2017 3:00 PM 81 63 2.39 0 4.27
4/15/2017 4:00 PM 80 66 0.93 0 3.75
4/15/2017 5:00 PM 81 61 1.12 0 3.9
4/15/2017 6:00 PM 80 63 0.54 0 3.73
4/15/2017 7:00 PM 78 66 0.09 0 2.83
4/15/2017 8:00 PM 77 70 0 0 3.24
4/15/2017 9:00 PM 75 74 0 0 4.04
4/15/2017 10:00 PM 74 78 0 0 4.35
4/15/2017 11:00 PM 72 82 0 0 4.27
Data Summary 70 76 10.96 0.00 3.49